• Join FlightAware (Why Join?)
  • Login
  • US Flag 
08:28PM EDT


 

Airport Tracker/Info


-or-


 

Live Flight TrackerFlight Track Log ✈ CTL21 ✈ 02-May-2012 ✈ KAZO - KBKL

Flight Track Log - Related Links

Times and Time Zones

All times are in EDT time to prevent confusion due to time zone crossing. See the CTL21 flight status page for this flight to view local times or setup timezone preferences in your user account.

Time Position Orientation Groundspeed Altitude Reporting Facility
EDT Latitude Longitude Course Direction KTS MPH feet Rate Location/Type
05:16PM 42.2314 -85.5346 109° East  Level FlightAware Approximate
05:17PM 42.2197 -85.4669 109° East  Level FlightAware Approximate
05:18PM 42.1774 -85.4343 108° East  Level FlightAware Approximate
05:19PM 42.1660 -85.3652 109° East  Level FlightAware Approximate
05:20PM 42.1317 -85.3119 108° East  Level FlightAware Approximate
05:21PM 42.1207 -85.2427 108° East  Level FlightAware Approximate
05:22PM 42.1096 -85.1736 108° East  Level FlightAware Approximate
05:23PM 42.0710 -85.1363 108° East  Level FlightAware Approximate
05:24PM 42.0605 -85.0670 108° East  Level FlightAware Approximate
05:25PM 42.0499 -84.9978 108° East  Level FlightAware Approximate
05:26PM 42.0393 -84.9286 108° East  Level FlightAware Approximate
05:27PM 42.0287 -84.8594 109° East  Level FlightAware Approximate
05:28PM 42.0180 -84.7902 109° East  Level FlightAware Approximate
05:29PM 42.0073 -84.7211 109° East  Level FlightAware Approximate
05:30PM 41.9965 -84.6520 110° East  Level FlightAware Approximate
05:31PM 41.9857 -84.5829 110° East  Level FlightAware Approximate
05:32PM 41.9748 -84.5138 110° East  Level FlightAware Approximate
05:33PM 41.9639 -84.4448 111° Southeast  Level FlightAware Approximate
05:34PM 41.9530 -84.3758 111° Southeast  Level FlightAware Approximate
05:35PM 41.9420 -84.3068 112° Southeast  Level FlightAware Approximate
05:36PM 41.9310 -84.2378 112° Southeast  Level FlightAware Approximate
05:37PM 41.9199 -84.1689 113° Southeast  Level FlightAware Approximate
05:38PM 41.9088 -84.0999 113° Southeast  Level FlightAware Approximate
05:39PM 41.8977 -84.0310 114° Southeast  Level FlightAware Approximate
05:40PM 41.8865 -83.9622 115° Southeast  Level FlightAware Approximate
05:41PM 41.8753 -83.8933 116° Southeast  Level FlightAware Approximate
05:42PM 41.8640 -83.8245 117° Southeast  Level FlightAware Approximate
05:43PM 41.8527 -83.7557 118° Southeast  Level FlightAware Approximate
05:44PM 41.8413 -83.6869 119° Southeast  Level FlightAware Approximate
05:45PM 41.8299 -83.6181 120° Southeast  Level FlightAware Approximate
05:46PM 41.8185 -83.5494 122° Southeast  Level FlightAware Approximate
05:47PM 41.8070 -83.4807 124° Southeast  Level FlightAware Approximate
05:48PM 41.7955 -83.4120 127° Southeast  Level FlightAware Approximate
05:49PM 41.7840 -83.3434 130° Southeast  Level FlightAware Approximate
05:50PM 41.7724 -83.2747 134° Southeast  Level FlightAware Approximate
05:51PM 41.7607 -83.2061 139° Southeast  Level FlightAware Approximate
05:52PM 41.7491 -83.1375 145° Southeast  Level FlightAware Approximate
05:53PM 41.7373 -83.0690 154° Southeast  Level FlightAware Approximate
05:54PM 41.7256 -83.0005 166° South  Level FlightAware Approximate
05:55PM 41.7138 -82.9320 180° South  Level FlightAware Approximate
05:56PM 41.5272 -82.9325 88° East 203 234 7,100  Level Cleveland Center
05:57PM 41.5289 -82.8575 91° East 203 234 7,100  Level Cleveland Center
05:58PM 41.5281 -82.7856 89° East 198 228 7,100  Level Cleveland Center
05:59PM 41.5294 -82.7106 86° East 200 230 7,100  Level Cleveland Center
06:00PM 41.5331 -82.6358 93° East 197 227 7,100 -60 Level Cleveland Center
06:02PM 41.5272 -82.4858 91° East 200 230 7,000 -240 Descending Cleveland Center
06:03PM 41.5264 -82.4025 89° East 214 246 6,400 -600 Descending Cleveland Center
06:04PM 41.5278 -82.3222 75° East 218 251 5,800 -600 Descending Cleveland Center
06:05PM 41.5436 -82.2450 79° East 216 249 5,200 -660 Descending Cleveland Center
06:06PM 41.5550 -82.1647 76° East 216 249 4,500 -600 Descending Cleveland Center
06:07PM 41.5708 -82.0819 81° East 214 246 4,100 -540 Descending Cleveland Center
06:08PM 41.5800 -82.0072 79° East 207 238 3,500 -660 Descending Cleveland Center
06:09PM 41.5914 -81.9297 89° East 208 239 2,800 -720 Descending Cleveland Center
06:10PM 41.5922 -81.8575 103° East 199 229 2,100 -540 Descending Cleveland Center
06:11PM 41.5806 -81.7878 108° East 189 217 1,800 -300 Descending Cleveland Center
06:12PM 41.5664 -81.7294 130° Southeast 168 193 1,600 -240 Descending Cleveland Center
06:13PM 41.5378 -81.6844 130° Southeast 149 171 1,400 -240 Descending Cleveland Center